Time;durP1;ratioP1;P1;durP2;ratioP2;P2;SDS_P1;SDS_P2;PMS_P1;PMS_P2;Temp;Humidity;BMP_temperature;BMP_pressure;BME280_temperature;BME280_humidity;BME280_pressure;Samples;Min_cycle;Max_cycle;Signal;HPM_P1;HPM_P2
2022/05/29 00:02:05;;;;;;;8.10;7.70;;;;;;;21.33;67.76;100566.91;5035281;28;20031;-58
2022/05/29 00:04:31;;;;;;;7.80;7.40;;;;;;;21.33;67.14;100569.66;5033435;28;20029;-58
2022/05/29 00:06:57;;;;;;;7.70;7.40;;;;;;;21.35;67.24;100569.47;5034891;28;20117;-58
2022/05/29 00:09:36;;;;;;;7.25;6.95;;;;;;;21.38;67.73;100569.06;5034757;28;20025;-59
2022/05/29 00:12:04;;;;;;;7.55;7.25;;;;;;;21.37;67.07;100572.88;5034648;28;20034;-59
2022/05/29 00:14:30;;;;;;;7.28;6.97;;;;;;;21.38;66.71;100574.56;5034552;28;20029;-59
2022/05/29 00:16:56;;;;;;;7.50;7.20;;;;;;;21.41;66.40;100571.41;5033401;28;20022;-58
2022/05/29 00:19:22;;;;;;;7.22;6.93;;;;;;;21.44;67.38;100568.28;5034524;28;20025;-59
2022/05/29 00:21:47;;;;;;;7.80;7.40;;;;;;;21.41;66.62;100574.16;5034536;28;20388;-59
2022/05/29 00:24:13;;;;;;;7.32;7.03;;;;;;;21.46;66.38;100571.66;5033225;28;20049;-59
2022/05/29 00:26:38;;;;;;;7.30;6.90;;;;;;;21.45;65.91;100569.97;5035293;28;20528;-57
2022/05/29 00:29:03;;;;;;;7.75;7.45;;;;;;;21.46;66.16;100568.91;5034517;28;20058;-58
2022/05/29 00:31:28;;;;;;;7.32;7.00;;;;;;;21.49;66.46;100565.78;5034795;28;20024;-58
2022/05/29 00:33:54;;;;;;;7.65;7.25;;;;;;;21.47;65.97;100565.13;5034319;28;20032;-58
2022/05/29 00:36:19;;;;;;;7.97;7.57;;;;;;;21.44;65.77;100573.75;5034421;28;20465;-58
2022/05/29 00:38:46;;;;;;;7.28;6.90;;;;;;;21.46;65.66;100571.66;5034210;28;20028;-59
2022/05/29 00:41:39;;;;;;;7.57;7.28;;;;;;;21.48;65.06;100566.84;5034215;28;20029;-58
2022/05/29 00:44:15;;;;;;;7.30;6.90;;;;;;;21.46;65.07;100571.66;5031268;28;20109;-58
2022/05/29 00:47:06;;;;;;;7.25;6.95;;;;;;;21.46;64.63;100577.13;5034288;28;20032;-58
2022/05/29 00:49:34;;;;;;;7.30;6.95;;;;;;;21.50;64.63;100559.25;5026822;28;20397;-58
2022/05/29 00:52:14;;;;;;;7.93;7.63;;;;;;;21.48;64.50;100572.28;5032574;28;20374;-59
2022/05/29 00:54:44;;;;;;;7.70;7.40;;;;;;;21.52;65.32;100576.34;5034129;28;20053;-58
2022/05/29 00:57:14;;;;;;;7.00;6.70;;;;;;;21.50;64.61;100573.81;5033939;28;20044;-58
2022/05/29 00:59:39;;;;;;;6.97;6.68;;;;;;;21.49;64.92;100582.19;5033766;28;20025;-58
2022/05/29 01:02:05;;;;;;;7.00;6.70;;;;;;;21.54;64.94;100579.72;5035595;28;20017;-56
2022/05/29 01:04:36;;;;;;;7.72;7.40;;;;;;;21.52;64.80;100587.28;5033992;28;20064;-59
2022/05/29 01:07:06;;;;;;;7.30;6.90;;;;;;;21.51;64.91;100591.06;5033771;28;20025;-59
2022/05/29 01:09:34;;;;;;;7.80;7.38;;;;;;;21.52;64.71;100587.28;5032635;28;20132;-58
2022/05/29 01:12:10;;;;;;;7.60;7.20;;;;;;;21.51;64.78;100591.06;5033534;28;20028;-59
2022/05/29 01:14:38;;;;;;;7.15;6.85;;;;;;;21.55;64.78;100595.94;5033422;28;20033;-58
2022/05/29 01:17:16;;;;;;;7.20;6.90;;;;;;;21.53;63.98;100594.44;5033564;28;20029;-59
2022/05/29 01:19:59;;;;;;;6.78;6.47;;;;;;;21.55;64.48;100597.84;5033940;28;20018;-58
2022/05/29 01:22:47;;;;;;;6.68;6.45;;;;;;;21.53;64.22;100605.41;5033068;28;20073;-59
2022/05/29 01:25:25;;;;;;;7.13;6.70;;;;;;;21.54;64.85;100601.63;5033330;28;20033;-59
2022/05/29 01:28:08;;;;;;;7.00;6.70;;;;;;;21.54;64.39;100596.97;5033374;28;20055;-59
2022/05/29 01:30:42;;;;;;;7.00;6.70;;;;;;;21.49;64.72;100598.59;5033083;28;20033;-59
2022/05/29 01:33:28;;;;;;;7.20;6.90;;;;;;;21.53;64.70;100594.44;5033164;28;20030;-58
2022/05/29 01:36:23;;;;;;;7.20;6.90;;;;;;;21.53;64.62;100594.44;5033873;28;20132;-59
2022/05/29 01:39:04;;;;;;;7.45;7.13;;;;;;;21.52;64.74;100600.97;5033166;28;20021;-58
2022/05/29 01:41:36;;;;;;;7.10;6.70;;;;;;;21.49;64.40;100598.59;5032973;28;20033;-58
2022/05/29 01:44:10;;;;;;;7.18;6.85;;;;;;;21.47;63.96;100589.75;5033856;28;20092;-58
2022/05/29 01:46:36;;;;;;;7.20;6.90;;;;;;;21.49;64.35;100593.13;5032862;28;20029;-58
2022/05/29 01:49:20;;;;;;;7.47;7.07;;;;;;;21.53;63.41;100599.94;5032994;28;20030;-58
2022/05/29 01:52:10;;;;;;;7.40;7.03;;;;;;;21.56;64.04;100599.53;5033346;28;20021;-58
2022/05/29 01:54:50;;;;;;;7.50;7.20;;;;;;;21.50;63.84;100594.81;5032713;28;20040;-58
2022/05/29 01:57:29;;;;;;;7.30;7.00;;;;;;;21.50;63.91;100595.69;5032645;28;20067;-58
2022/05/29 02:00:06;;;;;;;6.97;6.68;;;;;;;21.51;64.00;100599.28;5032760;28;20056;-58
2022/05/29 02:02:39;;;;;;;7.32;6.93;;;;;;;21.51;63.96;100602.00;5032644;28;20025;-58
2022/05/29 02:05:11;;;;;;;7.53;7.20;;;;;;;21.50;64.87;100609.38;5032896;28;20169;-58
2022/05/29 02:07:48;;;;;;;7.95;7.65;;;;;;;21.50;63.95;100603.03;5032540;28;20025;-58
2022/05/29 02:10:41;;;;;;;7.80;7.40;;;;;;;21.50;64.33;100600.28;5032567;28;20053;-59
2022/05/29 02:13:10;;;;;;;7.88;7.40;;;;;;;21.54;63.69;100601.63;5031398;28;20053;-58
2022/05/29 02:15:41;;;;;;;7.20;6.90;;;;;;;21.51;64.18;100607.47;5032418;28;20022;-58
2022/05/29 02:18:14;;;;;;;7.40;7.10;;;;;;;21.50;63.84;100601.16;5032509;28;20037;-58
2022/05/29 02:20:45;;;;;;;7.47;7.18;;;;;;;21.49;63.30;100604.91;5033034;28;20041;-58
2022/05/29 02:23:40;;;;;;;7.65;7.25;;;;;;;21.52;63.98;100607.28;5032557;28;20370;-58
2022/05/29 02:26:08;;;;;;;7.00;6.70;;;;;;;21.50;63.67;100603.91;5031189;28;20021;-58
2022/05/29 02:28:38;;;;;;;7.40;7.10;;;;;;;21.50;63.77;100600.28;5032313;28;20033;-58
2022/05/29 02:31:14;;;;;;;7.20;6.90;;;;;;;21.48;63.53;100603.22;5032385;28;20026;-58
2022/05/29 02:33:51;;;;;;;7.07;6.78;;;;;;;21.48;63.83;100607.84;5032289;28;20424;-58
2022/05/29 02:36:51;;;;;;;7.35;6.95;;;;;;;21.49;63.38;100606.81;5032391;28;20025;-57
2022/05/29 02:39:54;;;;;;;7.47;7.18;;;;;;;21.46;63.61;100605.31;4970946;28;20047;-58
2022/05/29 02:42:32;;;;;;;7.50;7.10;;;;;;;21.46;63.97;100609.94;4971092;28;20502;-58
2022/05/29 02:45:04;;;;;;;7.40;7.10;;;;;;;21.48;64.44;100605.97;4971209;28;20034;-58
2022/05/29 02:47:44;;;;;;;7.10;6.80;;;;;;;21.48;64.00;100610.59;4970995;28;20030;-58
2022/05/29 02:50:18;;;;;;;7.13;6.82;;;;;;;21.50;63.77;100611.22;4954974;28;20043;-57
2022/05/29 02:52:44;;;;;;;7.72;7.32;;;;;;;21.45;64.12;100614.56;4955042;28;20027;-58
2022/05/29 02:55:10;;;;;;;7.20;6.90;;;;;;;21.52;63.88;100620.13;4971114;28;20162;-58
2022/05/29 02:57:35;;;;;;;7.50;7.20;;;;;;;21.47;63.72;100614.38;4971042;28;20073;-56
2022/05/29 03:00:11;;;;;;;7.22;6.82;;;;;;;21.48;63.89;100627.00;4972168;28;20058;-58
2022/05/29 03:02:43;;;;;;;7.35;7.05;;;;;;;21.49;63.79;100620.47;4970839;28;20031;-58
2022/05/29 03:05:33;;;;;;;7.22;6.93;;;;;;;21.47;63.11;100620.69;4971062;28;20030;-58
2022/05/29 03:08:15;;;;;;;7.55;7.15;;;;;;;21.48;63.49;100624.25;4955027;28;20031;-58
2022/05/29 03:10:47;;;;;;;7.75;7.25;;;;;;;21.43;63.35;100626.75;4970949;28;20360;-58
2022/05/29 03:13:38;;;;;;;7.00;6.70;;;;;;;21.41;63.56;100628.84;4954744;28;20027;-58
2022/05/29 03:16:23;;;;;;;7.30;7.00;;;;;;;21.49;63.69;100625.94;5030420;28;20077;-58
2022/05/29 03:19:04;;;;;;;7.40;7.10;;;;;;;21.45;63.16;100641.91;5032043;28;20033;-58
2022/05/29 03:22:06;;;;;;;7.30;7.00;;;;;;;21.47;63.36;100636.25;5031882;28;20472;-57
2022/05/29 03:24:50;;;;;;;7.30;7.00;;;;;;;21.45;63.50;100638.34;5031908;28;20037;-58
2022/05/29 03:27:27;;;;;;;7.82;7.53;;;;;;;21.47;63.59;100638.97;5031900;28;20017;-58
2022/05/29 03:30:05;;;;;;;7.30;7.00;;;;;;;21.47;62.84;100638.97;5030709;28;20128;-58
2022/05/29 03:32:31;;;;;;;6.93;6.63;;;;;;;21.44;63.22;100639.38;5033067;28;20145;-58
2022/05/29 03:34:57;;;;;;;7.22;6.93;;;;;;;21.44;63.69;100640.22;5034434;28;20071;-58
2022/05/29 03:37:22;;;;;;;7.50;7.18;;;;;;;21.43;63.62;100637.69;5034053;28;20033;-58
2022/05/29 03:39:47;;;;;;;7.13;6.70;;;;;;;21.43;63.16;100648.63;5037222;28;20021;-59
2022/05/29 03:42:13;;;;;;;7.63;7.32;;;;;;;21.44;63.05;100650.31;5035282;28;20354;-57
2022/05/29 03:44:38;;;;;;;7.07;6.78;;;;;;;21.43;62.83;100644.00;5035463;28;20036;-58
2022/05/29 03:47:04;;;;;;;7.30;7.00;;;;;;;21.45;63.20;100650.13;5035249;28;20353;-58
2022/05/29 03:49:29;;;;;;;7.55;7.25;;;;;;;21.43;63.50;100648.63;5034995;28;20404;-58
2022/05/29 03:51:55;;;;;;;7.38;7.07;;;;;;;21.42;62.87;100657.88;5035236;28;20026;-58
2022/05/29 03:54:20;;;;;;;7.75;7.35;;;;;;;21.42;63.61;100652.41;5034999;28;20096;-58
2022/05/29 03:56:46;;;;;;;7.10;6.80;;;;;;;21.42;62.96;100656.00;5035085;28;20033;-58
2022/05/29 03:59:11;;;;;;;7.10;6.80;;;;;;;21.44;62.85;100659.38;5035022;28;20037;-58
2022/05/29 04:01:37;;;;;;;10.40;9.82;;;;;;;21.46;63.07;100661.91;5033534;28;20033;-58
2022/05/29 04:04:03;;;;;;;1.20;0.22;;;;;;;21.96;61.97;100663.59;5034994;28;20109;-58
2022/05/29 04:06:28;;;;;;;0.50;0.40;;;;;;;22.28;60.97;100662.16;5033403;28;20060;-58
2022/05/29 04:14:26;;;;;;;0.20;0.20;;;;;;;22.86;61.03;100670.91;5034853;28;20393;-58
2022/05/29 04:16:52;;;;;;;1.17;0.30;;;;;;;22.98;61.25;100672.00;5034730;28;20026;-58
2022/05/29 04:19:18;;;;;;;0.35;0.25;;;;;;;23.09;61.92;100670.56;5034571;28;20431;-58
2022/05/29 04:21:44;;;;;;;1.00;0.28;;;;;;;23.24;61.85;100667.66;5034649;28;20036;-58
2022/05/29 04:24:10;;;;;;;0.20;0.20;;;;;;;23.34;62.08;100665.31;5034438;28;20523;-58
2022/05/29 04:26:36;;;;;;;0.20;0.20;;;;;;;23.43;62.55;100664.09;5036741;28;20112;-57
2022/05/29 04:29:03;;;;;;;0.25;0.20;;;;;;;23.52;62.33;100665.59;5034460;28;20018;-58
2022/05/29 04:31:29;;;;;;;0.43;0.43;;;;;;;23.56;61.78;100661.34;5034195;28;20488;-58
2022/05/29 04:33:54;;;;;;;0.45;0.43;;;;;;;23.69;62.61;100660.56;5034286;28;20037;-58
2022/05/29 04:36:19;;;;;;;0.65;0.20;;;;;;;23.72;63.12;100662.03;5034293;28;20021;-58
2022/05/29 04:38:45;;;;;;;0.30;0.30;;;;;;;23.79;62.44;100662.88;5034201;28;20079;-58
2022/05/29 04:41:10;;;;;;;0.30;0.20;;;;;;;23.88;63.14;100659.72;5034281;28;20032;-58
2022/05/29 04:43:36;;;;;;;1.15;0.47;;;;;;;23.92;62.75;100662.88;5033999;28;20457;-57
2022/05/29 04:46:02;;;;;;;0.32;0.30;;;;;;;23.81;62.07;100667.09;5034126;28;20040;-57
2022/05/29 04:48:28;;;;;;;0.55;0.55;;;;;;;23.26;61.99;100665.53;5033950;28;20029;-58
2022/05/29 04:51:02;;;;;;;0.65;0.25;;;;;;;22.88;61.00;100671.56;5034132;28;20029;-58
2022/05/29 04:53:29;;;;;;;1.08;0.40;;;;;;;22.66;59.05;100672.66;5033735;28;20464;-58
2022/05/29 04:55:56;;;;;;;0.50;0.20;;;;;;;22.46;57.66;100673.41;5034033;28;20108;-58
2022/05/29 04:58:23;;;;;;;2.00;0.20;;;;;;;22.24;56.77;100674.56;5033777;28;20048;-58
2022/05/29 05:00:49;;;;;;;1.17;0.20;;;;;;;22.11;55.79;100671.72;5034230;28;20025;-58
2022/05/29 05:03:14;;;;;;;0.60;0.40;;;;;;;21.98;55.26;100677.91;5033753;28;20037;-58
2022/05/29 05:05:39;;;;;;;0.30;0.20;;;;;;;21.81;54.94;100671.03;5036842;28;20029;-57
2022/05/29 05:08:05;;;;;;;0.57;0.20;;;;;;;21.73;55.56;100677.53;5033853;28;20030;-58
2022/05/29 05:10:30;;;;;;;0.45;0.30;;;;;;;21.74;55.37;100673.75;5033515;28;20028;-58
2022/05/29 05:12:55;;;;;;;1.35;0.28;;;;;;;21.71;55.45;100678.78;5033538;28;20291;-58
2022/05/29 05:15:21;;;;;;;0.22;0.20;;;;;;;21.61;54.51;100684.56;5033457;28;20041;-58
2022/05/29 05:17:47;;;;;;;0.43;0.17;;;;;;;21.59;54.82;100683.91;5033551;28;20025;-58
2022/05/29 05:20:12;;;;;;;0.63;0.20;;;;;;;21.61;54.41;100690.03;5033579;28;20380;-58
2022/05/29 05:22:38;;;;;;;0.73;0.50;;;;;;;21.52;54.88;100692.06;5033130;28;20048;-58
2022/05/29 05:25:04;;;;;;;0.55;0.22;;;;;;;21.57;54.49;100696.94;5033653;28;20037;-58
2022/05/29 05:27:29;;;;;;;0.63;0.20;;;;;;;21.49;54.32;100694.31;5033149;28;20480;-58
2022/05/29 05:29:54;;;;;;;1.75;0.52;;;;;;;21.43;54.09;100686.91;5033312;28;20354;-58
2022/05/29 05:32:20;;;;;;;0.30;0.20;;;;;;;21.50;56.53;100698.75;5033138;28;20104;-58
2022/05/29 05:34:45;;;;;;;0.20;0.20;;;;;;;21.65;55.52;100699.53;5033397;28;20460;-58
2022/05/29 05:37:11;;;;;;;1.70;0.30;;;;;;;21.65;54.85;100696.78;5033528;28;20036;-58
2022/05/29 05:39:37;;;;;;;0.45;0.30;;;;;;;21.61;54.03;100703.72;5032973;28;20036;-58
2022/05/29 05:42:04;;;;;;;0.20;0.10;;;;;;;21.59;56.39;100708.53;5033120;28;20468;-58
2022/05/29 05:44:29;;;;;;;0.20;0.20;;;;;;;21.58;55.81;100717.78;5032910;28;20051;-58
2022/05/29 05:46:55;;;;;;;0.35;0.30;;;;;;;21.59;55.39;100714.84;5035900;28;20070;-58
2022/05/29 05:49:21;;;;;;;0.73;0.20;;;;;;;21.58;54.93;100704.09;5032902;28;20036;-58
2022/05/29 05:51:48;;;;;;;0.90;0.30;;;;;;;21.50;54.83;100709.69;5032894;28;20029;-58
2022/05/29 05:54:14;;;;;;;0.15;0.15;;;;;;;21.66;55.26;100711.31;5032667;28;20109;-58
2022/05/29 05:56:44;;;;;;;0.73;0.20;;;;;;;21.59;55.37;100708.53;5032484;28;20029;-58
2022/05/29 05:59:10;;;;;;;0.40;0.20;;;;;;;21.60;55.73;100716.53;5032948;28;20036;-61
2022/05/29 06:01:36;;;;;;;1.17;0.30;;;;;;;21.61;55.61;100720.13;5033085;28;20026;-58
2022/05/29 06:04:01;;;;;;;0.20;0.20;;;;;;;21.64;54.64;100725.19;5032814;28;20063;-58
2022/05/29 06:06:27;;;;;;;0.85;0.60;;;;;;;21.58;54.61;100734.19;5032519;28;20021;-59
2022/05/29 06:08:52;;;;;;;0.88;0.30;;;;;;;21.60;55.10;100732.09;5032717;28;20033;-58
2022/05/29 06:11:17;;;;;;;0.30;0.20;;;;;;;21.61;55.26;100733.81;5032581;28;20033;-58
2022/05/29 06:13:42;;;;;;;0.20;0.20;;;;;;;21.57;55.73;100732.50;5032576;28;20022;-58
2022/05/29 06:16:09;;;;;;;0.70;0.43;;;;;;;21.62;54.89;100736.34;5032859;28;20440;-58
2022/05/29 06:18:34;;;;;;;0.30;0.20;;;;;;;21.55;55.31;100738.19;5032708;28;20449;-58
2022/05/29 06:21:04;;;;;;;0.60;0.28;;;;;;;21.59;55.21;100741.38;5032517;28;20063;-58
2022/05/29 06:23:30;;;;;;;0.70;0.30;;;;;;;21.62;55.05;100735.50;5032299;28;20073;-58
2022/05/29 06:25:56;;;;;;;0.20;0.10;;;;;;;21.65;54.95;100740.56;5033805;28;20046;-58
2022/05/29 06:28:21;;;;;;;0.47;0.20;;;;;;;21.59;55.59;100746.84;5032462;28;20033;-58
2022/05/29 06:30:47;;;;;;;0.40;0.40;;;;;;;21.64;54.94;100749.81;5032520;28;20060;-58
2022/05/29 06:33:12;;;;;;;0.43;0.20;;;;;;;21.58;55.74;100745.13;5032395;28;20022;-58
2022/05/29 06:35:38;;;;;;;0.60;0.20;;;;;;;21.67;55.04;100754.94;5032236;28;20552;-58
2022/05/29 06:38:03;;;;;;;0.85;0.22;;;;;;;21.62;56.27;100755.50;5032340;28;20124;-57
2022/05/29 06:40:28;;;;;;;0.55;0.38;;;;;;;21.67;55.59;100754.94;5032179;28;20071;-58
2022/05/29 06:42:54;;;;;;;0.10;0.10;;;;;;;21.52;55.49;100756.88;5032672;28;20042;-58
2022/05/29 06:45:20;;;;;;;0.43;0.30;;;;;;;21.55;55.61;100757.31;5032261;28;20021;-58
2022/05/29 06:47:45;;;;;;;1.08;0.30;;;;;;;21.58;55.78;100747.88;5032234;28;20105;-59
2022/05/29 06:50:11;;;;;;;0.55;0.25;;;;;;;21.57;55.33;100757.97;5032295;28;20025;-58
2022/05/29 06:52:37;;;;;;;0.40;0.30;;;;;;;21.62;54.71;100763.69;5032050;28;20022;-58
2022/05/29 06:55:04;;;;;;;0.93;0.40;;;;;;;21.65;56.07;100770.66;5032750;28;20028;-58
2022/05/29 06:57:41;;;;;;;1.40;0.30;;;;;;;21.52;56.41;100767.81;5031962;28;20056;-58
2022/05/29 07:08:25;;;;;;;0.32;0.25;;;;;;;21.58;56.92;100772.50;5034988;28;20040;-58
2022/05/29 07:10:51;;;;;;;1.35;0.30;;;;;;;21.61;56.52;100769.38;5035939;28;20021;-59
2022/05/29 07:13:16;;;;;;;0.22;0.20;;;;;;;21.53;56.62;100769.50;5035865;28;20025;-58
2022/05/29 07:15:41;;;;;;;0.35;0.10;;;;;;;21.64;55.73;100771.72;5036150;28;20029;-58
2022/05/29 07:18:07;;;;;;;0.82;0.35;;;;;;;21.57;56.20;100770.81;5034567;28;20025;-58
2022/05/29 07:20:35;;;;;;;1.10;0.22;;;;;;;21.57;56.11;100773.53;5035617;28;20021;-58
2022/05/29 07:23:00;;;;;;;0.55;0.30;;;;;;;21.59;55.43;100779.66;5035626;28;20088;-58
2022/05/29 07:25:26;;;;;;;0.60;0.20;;;;;;;21.56;55.86;100778.16;5035492;28;20029;-58
2022/05/29 07:27:51;;;;;;;0.40;0.40;;;;;;;21.57;57.29;100784.47;5035735;28;20033;-58
2022/05/29 07:30:16;;;;;;;0.38;0.28;;;;;;;21.54;56.43;100782.13;5035534;28;20028;-58
2022/05/29 07:32:42;;;;;;;1.27;0.20;;;;;;;21.61;57.01;100783.03;5035415;28;20325;-58
2022/05/29 07:35:07;;;;;;;0.45;0.30;;;;;;;21.63;57.17;100780.97;5035488;28;20116;-58
2022/05/29 07:37:33;;;;;;;0.35;0.20;;;;;;;21.64;57.75;100771.72;5035315;28;20076;-58
2022/05/29 07:40:00;;;;;;;0.50;0.32;;;;;;;21.66;57.78;100769.63;5037684;28;20107;-58
2022/05/29 07:45:10;;;;;;;1.02;0.20;;;;;;;21.65;56.72;100780.75;5035447;28;20496;-58
2022/05/29 07:47:42;;;;;;;1.35;0.40;;;;;;;21.63;57.96;100780.97;5035077;28;20029;-58
2022/05/29 07:50:10;;;;;;;0.20;0.20;;;;;;;21.67;58.26;100782.28;5035265;28;20021;-58
2022/05/29 07:52:35;;;;;;;0.75;0.28;;;;;;;21.69;56.76;100780.19;5034981;28;20084;-58
2022/05/29 07:55:00;;;;;;;0.88;0.32;;;;;;;21.61;56.91;100788.50;5035161;28;20524;-58
2022/05/29 07:57:26;;;;;;;0.30;0.30;;;;;;;21.62;57.25;100785.59;5034893;28;20028;-58
2022/05/29 07:59:52;;;;;;;0.20;0.20;;;;;;;21.57;58.01;100787.22;5035059;28;20029;-58
2022/05/29 08:02:17;;;;;;;0.43;0.38;;;;;;;21.69;57.54;100790.31;5034929;28;20029;-58
2022/05/29 08:04:43;;;;;;;0.35;0.35;;;;;;;21.66;56.10;100791.50;5035405;28;20026;-58
2022/05/29 08:07:08;;;;;;;0.82;0.30;;;;;;;21.59;59.17;100790.59;5035229;28;20031;-58
2022/05/29 08:09:33;;;;;;;0.45;0.30;;;;;;;21.68;57.63;100794.94;5034697;28;20056;-57
2022/05/29 08:11:59;;;;;;;0.30;0.20;;;;;;;21.70;58.39;100790.09;5034770;28;20086;-59
2022/05/29 08:14:24;;;;;;;0.40;0.30;;;;;;;21.64;57.02;100799.06;5034576;28;20147;-58
2022/05/29 08:16:50;;;;;;;1.58;0.45;;;;;;;21.65;58.13;100808.13;5036534;28;20420;-58
2022/05/29 08:19:15;;;;;;;0.63;0.30;;;;;;;21.67;57.97;100801.44;5034212;28;20026;-58
2022/05/29 08:21:41;;;;;;;0.50;0.30;;;;;;;21.63;57.31;100794.63;5034792;28;20037;-58
2022/05/29 08:32:18;;;;;;;0.45;0.30;;;;;;;21.72;58.40;100807.16;5034358;28;20504;-58
2022/05/29 08:34:44;;;;;;;0.17;0.10;;;;;;;21.60;57.55;100814.19;5034389;28;20041;-58
2022/05/29 08:37:10;;;;;;;0.57;0.40;;;;;;;21.66;58.30;100818.88;5034330;28;20076;-58
2022/05/29 08:39:35;;;;;;;0.20;0.20;;;;;;;21.70;58.28;100813.88;5034148;28;20113;-58
2022/05/29 08:42:01;;;;;;;1.20;0.32;;;;;;;21.67;57.06;100809.66;5034312;28;20167;-58
2022/05/29 08:44:45;;;;;;;0.68;0.30;;;;;;;21.64;57.22;100820.94;5033999;28;20518;-58
2022/05/29 08:47:11;;;;;;;1.33;0.20;;;;;;;21.64;57.81;100820.94;5034208;28;20073;-57
2022/05/29 08:49:47;;;;;;;0.43;0.20;;;;;;;21.80;57.26;100815.22;5034464;28;20091;-58
2022/05/29 08:52:12;;;;;;;0.80;0.20;;;;;;;21.68;57.67;100822.28;5034035;28;20029;-58
2022/05/29 08:54:50;;;;;;;1.90;0.30;;;;;;;21.65;56.93;100819.91;5032654;28;20033;-58
2022/05/29 08:57:51;;;;;;;0.88;0.32;;;;;;;21.68;56.28;100816.81;5033937;28;20029;-59
2022/05/29 09:00:34;;;;;;;0.80;0.28;;;;;;;21.71;57.62;100824.63;5033916;28;20025;-58
2022/05/29 09:03:37;;;;;;;0.35;0.10;;;;;;;21.68;58.79;100827.75;5033970;28;20025;-59
2022/05/29 09:06:14;;;;;;;1.35;0.30;;;;;;;21.70;58.43;100831.16;5033785;28;20026;-58
2022/05/29 09:09:06;;;;;;;0.70;0.40;;;;;;;21.76;58.03;100830.34;5033728;28;20025;-58
2022/05/29 09:11:41;;;;;;;0.77;0.25;;;;;;;21.68;57.16;100822.28;5033503;28;20052;-58
2022/05/29 09:14:21;;;;;;;0.10;0.10;;;;;;;21.71;58.82;100832.84;5033565;28;20068;-58
2022/05/29 09:16:54;;;;;;;0.80;0.20;;;;;;;21.66;58.09;100840.75;5034067;28;20377;-59
2022/05/29 09:19:37;;;;;;;0.43;0.20;;;;;;;21.79;57.98;100843.66;5033431;28;20112;-58
2022/05/29 09:22:30;;;;;;;0.20;0.20;;;;;;;21.72;56.10;100841.88;5033510;28;20041;-58
2022/05/29 09:25:01;;;;;;;1.85;0.20;;;;;;;21.73;58.00;100844.44;5033501;28;20041;-58
2022/05/29 09:27:27;;;;;;;0.40;0.20;;;;;;;21.70;59.42;100847.56;5031877;28;20029;-58
2022/05/29 09:29:52;;;;;;;0.22;0.20;;;;;;;21.72;57.16;100850.94;5032764;28;20036;-58
2022/05/29 09:32:25;;;;;;;0.20;0.17;;;;;;;21.66;58.12;100857.16;5033141;28;20104;-58
2022/05/29 09:35:37;;;;;;;1.02;0.38;;;;;;;21.74;57.55;100858.97;5034840;28;20021;-58
2022/05/29 09:38:34;;;;;;;1.55;0.25;;;;;;;21.67;57.49;100858.91;4972045;28;20062;-58
2022/05/29 09:41:25;;;;;;;0.55;0.22;;;;;;;21.64;58.67;100864.72;4895830;29;20037;-57
2022/05/29 09:44:05;;;;;;;0.65;0.20;;;;;;;21.77;57.22;100864.88;4880034;29;20028;-59
2022/05/29 09:46:36;;;;;;;0.30;0.30;;;;;;;21.70;58.28;100874.91;4895300;29;20048;-58
2022/05/29 09:52:11;;;;;;;0.65;0.20;;;;;;;21.68;58.34;100871.53;4895691;29;20046;-58
2022/05/29 09:54:49;;;;;;;0.40;0.30;;;;;;;21.72;57.79;100881.03;4895325;29;20036;-58
2022/05/29 09:57:42;;;;;;;0.90;0.35;;;;;;;21.67;58.33;100879.91;4880043;29;20124;-58
2022/05/29 10:00:13;;;;;;;0.43;0.20;;;;;;;21.73;58.91;100879.16;4879737;29;20078;-58
2022/05/29 10:02:41;;;;;;;0.60;0.45;;;;;;;21.72;57.54;100889.25;4895396;29;20104;-58
2022/05/29 10:05:21;;;;;;;0.60;0.20;;;;;;;21.66;58.59;100887.25;4895304;29;20048;-58
2022/05/29 10:07:47;;;;;;;0.20;0.20;;;;;;;21.67;57.89;100880.78;4895368;29;20045;-58
2022/05/29 10:10:13;;;;;;;0.70;0.22;;;;;;;21.74;58.87;100889.91;4895263;29;20560;-58
2022/05/29 10:12:47;;;;;;;1.48;0.20;;;;;;;21.68;57.67;100882.47;4938183;29;20039;-58
2022/05/29 10:15:31;;;;;;;0.40;0.17;;;;;;;21.71;58.16;100887.56;4952354;29;20566;-58
2022/05/29 10:18:05;;;;;;;0.55;0.28;;;;;;;21.76;57.88;100890.56;4991795;28;20033;-58
2022/05/29 10:20:30;;;;;;;1.50;0.20;;;;;;;21.75;57.98;100888.84;5034251;28;20474;-58
2022/05/29 10:22:56;;;;;;;0.20;0.20;;;;;;;21.68;58.84;100896.16;5031105;28;20124;-58
2022/05/29 10:25:28;;;;;;;0.40;0.20;;;;;;;21.71;57.89;100905.88;5032441;28;20048;-58
2022/05/29 10:27:57;;;;;;;0.20;0.20;;;;;;;21.77;59.66;100897.72;5032561;28;20025;-58
2022/05/29 10:30:36;;;;;;;1.00;0.20;;;;;;;21.69;58.04;100900.59;5032607;28;20469;-58
2022/05/29 10:33:07;;;;;;;0.52;0.20;;;;;;;21.69;58.50;100911.53;5031155;28;20036;-58
2022/05/29 10:35:39;;;;;;;0.30;0.30;;;;;;;21.71;56.75;100900.38;5032309;28;20068;-58
2022/05/29 10:38:17;;;;;;;0.30;0.10;;;;;;;21.72;59.31;100907.56;5032400;28;20104;-57
2022/05/29 10:40:44;;;;;;;0.20;0.20;;;;;;;21.77;59.19;100913.28;5032712;28;20021;-58
2022/05/29 10:43:10;;;;;;;0.20;0.15;;;;;;;21.76;57.01;100909.72;5036604;28;20052;-58
2022/05/29 10:45:44;;;;;;;0.65;0.20;;;;;;;21.66;58.99;100914.63;5036506;28;20021;-58
2022/05/29 10:48:39;;;;;;;0.63;0.22;;;;;;;21.73;58.07;100917.47;5036441;28;20075;-58
2022/05/29 10:51:05;;;;;;;;;;;;;;;21.74;57.74;100914.53;5035508;28;20029;-58
2022/05/29 10:54:09;;;;;;;1.50;0.10;;;;;;;21.73;57.92;100917.47;5036029;28;19987;-58
2022/05/29 10:57:09;;;;;;;0.10;0.10;;;;;;;21.73;59.41;100921.03;5036133;28;20266;-58
2022/05/29 10:59:49;;;;;;;1.10;0.13;;;;;;;21.73;58.06;100922.94;5037528;28;20112;-58
2022/05/29 11:05:30;;;;;;;0.93;0.28;;;;;;;21.65;58.91;100926.59;5036099;28;20534;-58
2022/05/29 11:08:05;;;;;;;0.17;0.10;;;;;;;21.76;58.50;100923.38;5036086;28;20033;-58
2022/05/29 11:10:33;;;;;;;0.55;0.22;;;;;;;21.75;57.73;100927.16;5035843;28;20057;-58
2022/05/29 11:13:16;;;;;;;0.55;0.20;;;;;;;21.66;58.23;100928.31;5035922;28;20033;-58
2022/05/29 11:16:00;;;;;;;0.20;0.20;;;;;;;21.65;57.86;100932.09;5036170;28;20025;-58
2022/05/29 11:18:40;;;;;;;1.52;0.40;;;;;;;21.68;59.01;100936.34;5035746;28;20071;-58
2022/05/29 11:21:24;;;;;;;0.40;0.20;;;;;;;21.68;59.15;100931.72;5035784;28;20026;-58
2022/05/29 11:23:49;;;;;;;1.30;0.20;;;;;;;21.69;58.76;100927.09;5035599;28;20045;-58
2022/05/29 11:26:29;;;;;;;0.70;0.30;;;;;;;21.75;58.11;100943.59;5035602;28;20029;-58
2022/05/29 11:29:16;;;;;;;1.27;0.35;;;;;;;21.72;59.30;100938.50;5035586;28;20266;-58
2022/05/29 11:31:51;;;;;;;1.45;0.20;;;;;;;21.73;59.14;100939.34;5036661;28;20049;-58
2022/05/29 11:34:33;;;;;;;0.70;0.20;;;;;;;21.71;57.96;100936.81;5035411;28;20507;-58
2022/05/29 11:37:18;;;;;;;1.88;0.30;;;;;;;21.70;58.87;100940.59;5035464;28;20041;-58
2022/05/29 11:39:48;;;;;;;3.20;0.20;;;;;;;21.71;57.88;100942.28;5035442;28;20350;-58
2022/05/29 11:42:19;;;;;;;0.70;0.40;;;;;;;21.69;58.45;100944.38;5033968;28;20060;-58
2022/05/29 11:44:57;;;;;;;0.60;0.20;;;;;;;21.68;58.80;100942.66;5034079;28;20072;-58
2022/05/29 11:53:40;;;;;;;0.25;0.20;;;;;;;21.66;57.91;100949.34;5034399;28;20056;-58
2022/05/29 11:56:15;;;;;;;1.75;0.38;;;;;;;21.70;59.21;100962.47;5035166;28;20465;-58
2022/05/29 11:58:47;;;;;;;1.77;0.30;;;;;;;21.72;58.52;100949.44;5035356;28;20067;-58
2022/05/29 12:01:24;;;;;;;0.13;0.13;;;;;;;21.67;58.41;100957.38;5035161;28;20025;-58
2022/05/29 12:03:59;;;;;;;0.38;0.30;;;;;;;21.81;57.64;100956.50;5037410;28;20036;-58
2022/05/29 12:06:34;;;;;;;0.10;0.10;;;;;;;21.70;57.93;100961.63;5034880;28;20044;-58
2022/05/29 12:08:59;;;;;;;0.57;0.10;;;;;;;21.67;59.25;100968.34;5033585;28;20032;-58
2022/05/29 12:11:30;;;;;;;0.87;0.50;;;;;;;21.66;57.79;100966.59;5034623;28;20029;-58
2022/05/29 12:14:22;;;;;;;0.38;0.17;;;;;;;21.70;57.94;100962.47;5035153;28;20274;-58
2022/05/29 12:16:51;;;;;;;0.68;0.20;;;;;;;21.70;58.21;100967.09;5034830;28;20408;-58
2022/05/29 12:19:24;;;;;;;0.32;0.13;;;;;;;21.70;58.15;100959.75;5034683;28;20376;-58
2022/05/29 12:21:54;;;;;;;1.17;0.50;;;;;;;21.78;59.61;100961.50;5035052;23;20493;-58
2022/05/29 12:24:26;;;;;;;0.30;0.30;;;;;;;21.75;57.78;100970.94;5015049;28;20014;-57